Time;durP1;ratioP1;P1;durP2;ratioP2;P2;SDS_P1;SDS_P2;PMS_P1;PMS_P2;Temp;Humidity;BMP_temperature;BMP_pressure;BME280_temperature;BME280_humidity;BME280_pressure;Samples;Min_cycle;Max_cycle;Signal;HPM_P1;HPM_P2
2022/12/26 00:00:03;;;;;;;;;;;;;;;;;;1039982;28;2880;-49
2022/12/26 00:00:34;;;;;;;;;;;;;;;;;;1039590;28;4061;-48
2022/12/26 00:01:25;;;;;;;;;;;;;;;;;;1039324;28;4343;-50
2022/12/26 00:01:56;;;;;;;;;;;;;;;;;;1039219;28;2495;-51
2022/12/26 00:02:27;;;;;;;;;;;;;;;;;;1038097;28;4081;-46
2022/12/26 00:02:57;;;;;;;;;;;;;;;;;;1038612;28;2453;-49
2022/12/26 00:03:29;;;;;;;;;;;;;;;;;;1040543;28;4982;-51
2022/12/26 00:03:59;;;;;;;;;;;;;;;;;;1039814;28;2711;-51
2022/12/26 00:04:30;;;;;;;;;;;;;;;;;;1039043;28;4440;-49
2022/12/26 00:05:00;;;;;;;;;;;;;;;;;;1040613;28;2681;-47
2022/12/26 00:05:34;;;;;;;;;;;;;;;;;;1038720;28;3976;-52
2022/12/26 00:06:10;;;;;;;;;;;;;;;;;;1040638;28;2538;-51
2022/12/26 00:06:40;;;;;;;;;;;;;;;;;;1039644;28;5232;-52
2022/12/26 00:07:10;;;;;;;;;;;;;;;;;;1038702;28;3139;-50
2022/12/26 00:07:41;;;;;;;;;;;;;;;;;;1040059;28;3873;-50
2022/12/26 00:08:11;;;;;;;;;;;;;;;;;;1038885;28;2948;-48
2022/12/26 00:08:42;;;;;;;;;;;;;;;;;;1038258;28;4064;-51
2022/12/26 00:09:12;;;;;;;;;;;;;;;;;;1039549;28;2716;-49
2022/12/26 00:09:42;;;;;;;;;;;;;;;;;;1038339;28;4186;-50
2022/12/26 00:10:12;;;;;;;;;;;;;;;;;;1040425;28;2537;-46
2022/12/26 00:10:43;;;;;;;;;;;;;;;;;;1039280;28;4053;-46
2022/12/26 00:11:13;;;;;;;;;;;;;;;;;;1037388;28;2445;-50
2022/12/26 00:11:43;;;;;;;;;;;;;;;;;;1035732;28;4094;-48
2022/12/26 00:12:14;;;;;;;;;;;;;;;;;;1042031;28;3039;-50
2022/12/26 00:12:44;;;;;;;;;;;;;;;;;;1038249;28;4077;-48
2022/12/26 00:13:14;;;;;;;;;;;;;;;;;;1043179;28;2378;-51
2022/12/26 00:13:45;;;;;;;;;;;;;;;;;;1044906;28;3968;-47
2022/12/26 00:14:16;;;;;;;;;;;;;;;;;;1042338;28;3189;-48
2022/12/26 00:14:46;;;;;;;;;;;;;;;;;;1039446;28;4071;-48
2022/12/26 00:15:16;;;;;;;;;;;;;;;;;;1039866;28;2465;-50
2022/12/26 00:15:46;;;;;;;;;;;;;;;;;;1037497;28;4267;-45
2022/12/26 00:16:18;;;;;;;;;;;;;;;;;;1039904;28;2644;-48
2022/12/26 00:16:48;;;;;;;;;;;;;;;;;;1040700;28;4027;-47
2022/12/26 00:17:18;;;;;;;;;;;;;;;;;;1036906;28;2681;-46
2022/12/26 00:17:49;;;;;;;;;;;;;;;;;;1036136;28;3882;-49
2022/12/26 00:18:19;;;;;;;;;;;;;;;;;;1030438;28;2460;-51
2022/12/26 00:18:49;;;;;;;;;;;;;;;;;;1032611;28;4390;-47
2022/12/26 00:19:20;;;;;;;;;;;;;;;;;;1040831;28;3103;-50
2022/12/26 00:19:50;;;;;;;;;;;;;;;;;;1038427;28;4191;-47
2022/12/26 00:20:20;;;;;;;;;;;;;;;;;;1040564;28;2517;-48
2022/12/26 00:20:50;;;;;;;;;;;;;;;;;;1039965;28;3911;-50
2022/12/26 00:21:22;;;;;;;;;;;;;;;;;;1040828;28;2396;-47
2022/12/26 00:21:52;;;;;;;;;;;;;;;;;;1038850;28;3905;-48
2022/12/26 00:22:23;;;;;;;;;;;;;;;;;;1043439;28;4060;-47
2022/12/26 00:22:53;;;;;;;;;;;;;;;;;;1043025;28;2816;-47
2022/12/26 00:23:23;;;;;;;;;;;;;;;;;;1040626;28;3880;-48
2022/12/26 00:23:55;;;;;;;;;;;;;;;;;;1038665;28;2504;-47
2022/12/26 00:24:25;;;;;;;;;;;;;;;;;;1039980;28;4196;-49
2022/12/26 00:24:55;;;;;;;;;;;;;;;;;;1037661;28;2982;-49
2022/12/26 00:25:26;;;;;;;;;;;;;;;;;;1038234;28;3965;-49
2022/12/26 00:26:00;;;;;;;;;;;;;;;;;;1039292;28;2532;-49
2022/12/26 00:26:31;;;;;;;;;;;;;;;;;;1038758;28;3944;-48
2022/12/26 00:27:01;;;;;;;;;;;;;;;;;;1039205;28;3028;-51
2022/12/26 00:27:38;;;;;;;;;;;;;;;;;;1040178;28;3951;-49
2022/12/26 00:28:08;;;;;;;;;;;;;;;;;;1038994;28;3012;-48
2022/12/26 00:28:38;;;;;;;;;;;;;;;;;;1038717;28;3826;-51
2022/12/26 00:29:09;;;;;;;;;;;;;;;;;;1039308;28;2583;-47
2022/12/26 00:29:39;;;;;;;;;;;;;;;;;;1040296;28;3903;-49
2022/12/26 00:30:09;;;;;;;;;;;;;;;;;;1039547;28;2642;-51
2022/12/26 00:30:40;;;;;;;;;;;;;;;;;;1039402;28;3854;-46
2022/12/26 00:31:11;;;;;;;;;;;;;;;;;;1038347;28;2845;-50
2022/12/26 00:31:41;;;;;;;;;;;;;;;;;;1038023;28;3795;-50
2022/12/26 00:32:12;;;;;;;;;;;;;;;;;;1041062;28;3062;-52
2022/12/26 00:32:42;;;;;;;;;;;;;;;;;;1038896;28;4043;-48
2022/12/26 00:33:12;;;;;;;;;;;;;;;;;;1039751;28;2558;-50
2022/12/26 00:33:42;;;;;;;;;;;;;;;;;;1038261;28;3942;-49
2022/12/26 00:34:13;;;;;;;;;;;;;;;;;;1040051;28;2797;-46
2022/12/26 00:34:43;;;;;;;;;;;;;;;;;;1038894;28;3890;-48
2022/12/26 00:35:13;;;;;;;;;;;;;;;;;;1040502;28;3060;-52
2022/12/26 00:35:43;;;;;;;;;;;;;;;;;;1039582;28;3944;-48
2022/12/26 00:36:18;;;;;;;;;;;;;;;;;;1040065;28;2515;-45
2022/12/26 00:36:48;;;;;;;;;;;;;;;;;;1038346;28;4474;-49
2022/12/26 00:37:19;;;;;;;;;;;;;;;;;;1039426;28;2954;-48
2022/12/26 00:37:49;;;;;;;;;;;;;;;;;;1039280;28;3805;-47
2022/12/26 00:38:19;;;;;;;;;;;;;;;;;;1040138;28;2444;-48
2022/12/26 00:38:50;;;;;;;;;;;;;;;;;;1038022;28;4045;-50
2022/12/26 00:39:20;;;;;;;;;;;;;;;;;;1040679;28;2477;-51
2022/12/26 00:39:51;;;;;;;;;;;;;;;;;;1039723;28;4374;-49
2022/12/26 00:40:21;;;;;;;;;;;;;;;;;;1040097;28;2987;-47
2022/12/26 00:40:51;;;;;;;;;;;;;;;;;;1040055;28;3815;-48
2022/12/26 00:41:21;;;;;;;;;;;;;;;;;;1039298;28;3008;-52
2022/12/26 00:41:52;;;;;;;;;;;;;;;;;;1039289;28;4365;-50
2022/12/26 00:42:22;;;;;;;;;;;;;;;;;;1039079;28;3136;-49
2022/12/26 00:42:52;;;;;;;;;;;;;;;;;;1039089;28;3944;-50
2022/12/26 00:43:22;;;;;;;;;;;;;;;;;;1039761;28;3076;-48
2022/12/26 00:43:53;;;;;;;;;;;;;;;;;;1039176;28;3768;-46
2022/12/26 00:44:23;;;;;;;;;;;;;;;;;;1039798;28;4417;-49
2022/12/26 00:44:53;;;;;;;;;;;;;;;;;;1039714;28;2992;-49
2022/12/26 00:45:24;;;;;;;;;;;;;;;;;;1039631;28;4135;-47
2022/12/26 00:45:54;;;;;;;;;;;;;;;;;;1040162;28;3141;-51
2022/12/26 00:46:25;;;;;;;;;;;;;;;;;;1038456;28;4068;-51
2022/12/26 00:46:55;;;;;;;;;;;;;;;;;;1040201;28;3033;-48
2022/12/26 00:47:25;;;;;;;;;;;;;;;;;;1039107;28;4054;-48
2022/12/26 00:47:55;;;;;;;;;;;;;;;;;;1040537;28;2975;-48
2022/12/26 00:48:26;;;;;;;;;;;;;;;;;;1038290;28;3983;-49
2022/12/26 00:48:56;;;;;;;;;;;;;;;;;;1040177;28;2943;-50
2022/12/26 00:49:27;;;;;;;;;;;;;;;;;;1038392;28;3861;-48
2022/12/26 00:49:57;;;;;;;;;;;;;;;;;;1039771;28;3091;-48
2022/12/26 00:50:28;;;;;;;;;;;;;;;;;;1040401;28;4330;-50
2022/12/26 00:50:58;;;;;;;;;;;;;;;;;;1040623;28;3005;-49
2022/12/26 00:51:28;;;;;;;;;;;;;;;;;;1038695;28;3812;-49
2022/12/26 00:51:58;;;;;;;;;;;;;;;;;;1039440;28;2411;-46
2022/12/26 00:52:29;;;;;;;;;;;;;;;;;;1038480;28;3851;-47
2022/12/26 00:52:59;;;;;;;;;;;;;;;;;;1039794;28;2589;-49
2022/12/26 00:53:29;;;;;;;;;;;;;;;;;;1039569;28;4141;-51
2022/12/26 00:54:00;;;;;;;;;;;;;;;;;;1038902;28;3032;-45
2022/12/26 00:54:30;;;;;;;;;;;;;;;;;;1042374;28;4003;-49
2022/12/26 00:55:00;;;;;;;;;;;;;;;;;;1042332;28;2823;-47
2022/12/26 00:55:31;;;;;;;;;;;;;;;;;;1042567;28;3867;-48
2022/12/26 00:56:01;;;;;;;;;;;;;;;;;;1038305;28;2737;-47
2022/12/26 00:56:31;;;;;;;;;;;;;;;;;;1040750;28;3966;-50
2022/12/26 00:57:01;;;;;;;;;;;;;;;;;;1039715;28;2628;-48
2022/12/26 00:57:32;;;;;;;;;;;;;;;;;;1039837;28;4049;-47
2022/12/26 00:58:02;;;;;;;;;;;;;;;;;;1040326;28;2606;-49
2022/12/26 00:58:45;;;;;;;;;;;;;;;;;;1043928;28;4066;-51
2022/12/26 00:59:23;;;;;;;;;;;;;;;;;;1047147;28;3899;-47
2022/12/26 00:59:53;;;;;;;;;;;;;;;;;;1048276;28;2790;-47
2022/12/26 01:00:23;;;;;;;;;;;;;;;;;;1044079;28;3812;-49
2022/12/26 01:00:54;;;;;;;;;;;;;;;;;;1044086;28;3045;-48
2022/12/26 01:01:24;;;;;;;;;;;;;;;;;;1043418;28;3972;-48
2022/12/26 01:01:54;;;;;;;;;;;;;;;;;;1044342;28;3056;-47
2022/12/26 01:02:37;;;;;;;;;;;;;;;;;;1047121;28;4152;-51
2022/12/26 01:03:08;;;;;;;;;;;;;;;;;;1046993;28;2944;-49
2022/12/26 01:03:38;;;;;;;;;;;;;;;;;;1046699;28;4480;-49
2022/12/26 01:04:09;;;;;;;;;;;;;;;;;;1049035;28;2494;-50
2022/12/26 01:04:39;;;;;;;;;;;;;;;;;;1046500;28;6935;-52
2022/12/26 01:05:10;;;;;;;;;;;;;;;;;;1046440;28;2951;-51
2022/12/26 01:05:41;;;;;;;;;;;;;;;;;;1046031;28;4427;-49
2022/12/26 01:06:12;;;;;;;;;;;;;;;;;;1043976;28;2500;-47
2022/12/26 01:06:42;;;;;;;;;;;;;;;;;;1042686;28;4220;-49
2022/12/26 01:07:12;;;;;;;;;;;;;;;;;;1045071;28;2633;-51
2022/12/26 01:07:42;;;;;;;;;;;;;;;;;;1041880;28;5270;-51
2022/12/26 01:08:13;;;;;;;;;;;;;;;;;;1047972;28;2684;-48
2022/12/26 01:08:43;;;;;;;;;;;;;;;;;;1047251;28;3890;-48
2022/12/26 01:09:14;;;;;;;;;;;;;;;;;;1043988;28;2603;-46
2022/12/26 01:09:44;;;;;;;;;;;;;;;;;;1038239;28;4447;-46
2022/12/26 01:10:14;;;;;;;;;;;;;;;;;;1039683;28;2416;-51
2022/12/26 01:10:52;;;;;;;;;;;;;;;;;;1038748;28;4019;-48
2022/12/26 01:11:41;;;;;;;;;;;;;;;;;;1044313;28;3006;-51
2022/12/26 01:12:11;;;;;;;;;;;;;;;;;;1046509;28;3924;-45
2022/12/26 01:12:41;;;;;;;;;;;;;;;;;;1045761;28;4068;-49
2022/12/26 01:13:12;;;;;;;;;;;;;;;;;;1048291;28;2945;-50
2022/12/26 01:13:43;;;;;;;;;;;;;;;;;;1048369;28;3938;-47
2022/12/26 01:14:14;;;;;;;;;;;;;;;;;;1044535;28;2729;-49
2022/12/26 01:14:44;;;;;;;;;;;;;;;;;;1043489;28;4015;-51
2022/12/26 01:15:15;;;;;;;;;;;;;;;;;;1042741;28;2766;-49
2022/12/26 01:15:52;;;;;;;;;;;;;;;;;;1042954;28;4073;-51
2022/12/26 01:16:22;;;;;;;;;;;;;;;;;;1048478;28;2723;-50
2022/12/26 01:16:52;;;;;;;;;;;;;;;;;;1047849;28;4174;-51
2022/12/26 01:17:23;;;;;;;;;;;;;;;;;;1047895;28;2974;-48
2022/12/26 01:17:53;;;;;;;;;;;;;;;;;;1046503;28;3893;-49
2022/12/26 01:18:23;;;;;;;;;;;;;;;;;;1046844;28;4119;-48
2022/12/26 01:18:54;;;;;;;;;;;;;;;;;;1048194;28;2787;-51
2022/12/26 01:19:24;;;;;;;;;;;;;;;;;;1046412;28;3997;-49
2022/12/26 01:19:54;;;;;;;;;;;;;;;;;;1047374;28;2969;-49
2022/12/26 01:20:25;;;;;;;;;;;;;;;;;;1045539;28;3928;-47
2022/12/26 01:21:00;;;;;;;;;;;;;;;;;;1048000;28;3315;-49
2022/12/26 01:21:30;;;;;;;;;;;;;;;;;;1047179;28;3806;-49
2022/12/26 01:22:01;;;;;;;;;;;;;;;;;;1046614;28;2990;-48
2022/12/26 01:22:31;;;;;;;;;;;;;;;;;;1047147;28;4073;-48
2022/12/26 01:23:01;;;;;;;;;;;;;;;;;;1046468;28;2808;-47
2022/12/26 01:23:31;;;;;;;;;;;;;;;;;;1048217;28;4000;-49
2022/12/26 01:24:02;;;;;;;;;;;;;;;;;;1047781;28;2994;-52
2022/12/26 01:24:32;;;;;;;;;;;;;;;;;;1046393;28;3877;-51
2022/12/26 01:25:09;;;;;;;;;;;;;;;;;;1042755;28;2695;-47
2022/12/26 01:25:39;;;;;;;;;;;;;;;;;;1042483;28;3826;-49
2022/12/26 01:26:10;;;;;;;;;;;;;;;;;;1044158;28;3000;-50
2022/12/26 01:26:40;;;;;;;;;;;;;;;;;;1043453;28;4030;-45
2022/12/26 01:27:11;;;;;;;;;;;;;;;;;;1047779;28;3058;-53
2022/12/26 01:27:41;;;;;;;;;;;;;;;;;;1043780;28;4152;-48
2022/12/26 01:28:11;;;;;;;;;;;;;;;;;;1043713;28;2988;-46
2022/12/26 01:28:41;;;;;;;;;;;;;;;;;;1042561;28;3882;-50
2022/12/26 01:29:12;;;;;;;;;;;;;;;;;;1044931;28;3131;-49
2022/12/26 01:29:42;;;;;;;;;;;;;;;;;;1047607;28;4438;-48
2022/12/26 01:30:12;;;;;;;;;;;;;;;;;;1048627;28;2470;-48
2022/12/26 01:30:43;;;;;;;;;;;;;;;;;;1046427;28;3877;-48
2022/12/26 01:31:13;;;;;;;;;;;;;;;;;;1044371;28;3153;-47
2022/12/26 01:31:44;;;;;;;;;;;;;;;;;;1044465;28;3952;-50
2022/12/26 01:32:14;;;;;;;;;;;;;;;;;;1039806;28;2874;-48
2022/12/26 01:32:44;;;;;;;;;;;;;;;;;;1039315;28;4853;-53
2022/12/26 01:33:15;;;;;;;;;;;;;;;;;;1044249;28;3024;-50
2022/12/26 01:33:45;;;;;;;;;;;;;;;;;;1043436;28;4385;-45
2022/12/26 01:34:15;;;;;;;;;;;;;;;;;;1048525;28;2983;-52
2022/12/26 01:34:46;;;;;;;;;;;;;;;;;;1047757;28;3842;-49
2022/12/26 01:35:16;;;;;;;;;;;;;;;;;;1049500;28;2551;-46
2022/12/26 01:35:50;;;;;;;;;;;;;;;;;;1047430;28;4437;-48
2022/12/26 01:36:20;;;;;;;;;;;;;;;;;;1048953;28;2959;-48
2022/12/26 01:36:51;;;;;;;;;;;;;;;;;;1047856;28;4459;-49
2022/12/26 01:37:22;;;;;;;;;;;;;;;;;;1048173;28;2652;-49
2022/12/26 01:37:52;;;;;;;;;;;;;;;;;;1047704;28;3942;-51
2022/12/26 01:38:22;;;;;;;;;;;;;;;;;;1048645;28;2712;-49
2022/12/26 01:38:53;;;;;;;;;;;;;;;;;;1047088;28;3785;-50
2022/12/26 01:39:23;;;;;;;;;;;;;;;;;;1047756;28;4144;-48
2022/12/26 01:39:53;;;;;;;;;;;;;;;;;;1047460;28;2424;-50
2022/12/26 01:40:23;;;;;;;;;;;;;;;;;;1048270;28;4052;-46
2022/12/26 01:41:43;;;;;;;;;;;;;;;;;;1049143;28;4383;-48
2022/12/26 01:42:14;;;;;;;;;;;;;;;;;;1046692;28;3213;-49
2022/12/26 01:42:44;;;;;;;;;;;;;;;;;;1048053;28;3768;-49
2022/12/26 01:43:15;;;;;;;;;;;;;;;;;;1047537;28;2495;-46
2022/12/26 01:44:06;;;;;;;;;;;;;;;;;;1047101;28;4395;-48
2022/12/26 01:44:51;;;;;;;;;;;;;;;;;;1045848;28;3798;-49
2022/12/26 01:45:28;;;;;;;;;;;;;;;;;;1048559;28;2630;-47
2022/12/26 01:45:58;;;;;;;;;;;;;;;;;;1048555;28;3841;-49
2022/12/26 01:46:43;;;;;;;;;;;;;;;;;;1047429;28;4082;-50
2022/12/26 01:47:13;;;;;;;;;;;;;;;;;;1048720;28;3006;-49
2022/12/26 01:47:57;;;;;;;;;;;;;;;;;;1047309;28;4045;-48
2022/12/26 01:48:32;;;;;;;;;;;;;;;;;;1046836;28;4022;-50
2022/12/26 01:49:13;;;;;;;;;;;;;;;;;;1049333;28;2404;-48
2022/12/26 01:49:45;;;;;;;;;;;;;;;;;;1047276;28;3784;-47
2022/12/26 01:50:28;;;;;;;;;;;;;;;;;;1047846;28;2996;-45
2022/12/26 01:51:00;;;;;;;;;;;;;;;;;;1047326;28;3908;-46
2022/12/26 01:51:32;;;;;;;;;;;;;;;;;;1047855;28;4033;-50
2022/12/26 01:52:04;;;;;;;;;;;;;;;;;;1048506;28;3044;-47
2022/12/26 01:52:41;;;;;;;;;;;;;;;;;;1042076;28;4050;-47
2022/12/26 01:53:23;;;;;;;;;;;;;;;;;;1042220;28;2796;-48
2022/12/26 01:53:55;;;;;;;;;;;;;;;;;;1042882;28;3860;-46
2022/12/26 01:54:27;;;;;;;;;;;;;;;;;;1044809;28;3937;-48
2022/12/26 01:54:57;;;;;;;;;;;;;;;;;;1048619;28;2874;-48
2022/12/26 01:55:29;;;;;;;;;;;;;;;;;;1047133;28;3946;-50
2022/12/26 01:56:02;;;;;;;;;;;;;;;;;;1049052;28;2565;-50
2022/12/26 01:56:35;;;;;;;;;;;;;;;;;;1046341;28;3939;-50
2022/12/26 01:57:08;;;;;;;;;;;;;;;;;;1041041;28;2915;-49
2022/12/26 01:57:44;;;;;;;;;;;;;;;;;;1042502;28;3831;-50
2022/12/26 01:58:19;;;;;;;;;;;;;;;;;;1043168;28;2523;-47
2022/12/26 01:59:06;;;;;;;;;;;;;;;;;;1041910;28;3894;-47
2022/12/26 01:59:45;;;;;;;;;;;;;;;;;;1042819;28;3950;-52
2022/12/26 02:00:15;;;;;;;;;;;;;;;;;;1043100;28;2850;-47
2022/12/26 02:00:46;;;;;;;;;;;;;;;;;;1042851;28;4124;-47
2022/12/26 02:01:17;;;;;;;;;;;;;;;;;;1045002;28;2807;-48
2022/12/26 02:01:48;;;;;;;;;;;;;;;;;;1042008;28;4337;-49
2022/12/26 02:02:20;;;;;;;;;;;;;;;;;;1044698;28;2807;-50
2022/12/26 02:05:34;;;;;;;;;;;;;;;;;;1044219;28;3955;-46
2022/12/26 02:06:04;;;;;;;;;;;;;;;;;;1043072;28;3055;-46
2022/12/26 02:06:36;;;;;;;;;;;;;;;;;;1044665;28;4062;-50
2022/12/26 02:07:06;;;;;;;;;;;;;;;;;;1043103;28;2444;-48
2022/12/26 02:07:38;;;;;;;;;;;;;;;;;;1044075;28;4206;-48
2022/12/26 02:08:16;;;;;;;;;;;;;;;;;;1042326;28;2989;-48
2022/12/26 02:08:46;;;;;;;;;;;;;;;;;;1044637;28;4437;-48
2022/12/26 02:09:17;;;;;;;;;;;;;;;;;;1045088;28;2763;-48
2022/12/26 02:09:47;;;;;;;;;;;;;;;;;;1043736;28;3936;-44
2022/12/26 02:10:20;;;;;;;;;;;;;;;;;;1042431;28;3001;-45
2022/12/26 02:10:57;;;;;;;;;;;;;;;;;;1043232;28;3746;-48
2022/12/26 02:11:31;;;;;;;;;;;;;;;;;;1041846;28;3798;-49
2022/12/26 02:12:15;;;;;;;;;;;;;;;;;;1043341;28;2840;-51
2022/12/26 02:12:45;;;;;;;;;;;;;;;;;;1043633;28;4208;-51
2022/12/26 02:13:16;;;;;;;;;;;;;;;;;;1043773;28;3024;-49
2022/12/26 02:13:47;;;;;;;;;;;;;;;;;;1041414;28;4244;-54
2022/12/26 02:14:17;;;;;;;;;;;;;;;;;;1047075;28;3010;-47
2022/12/26 02:14:48;;;;;;;;;;;;;;;;;;1046593;28;4052;-50
2022/12/26 02:15:19;;;;;;;;;;;;;;;;;;1047696;28;2492;-52
2022/12/26 02:15:49;;;;;;;;;;;;;;;;;;1046969;28;3789;-47
2022/12/26 02:16:19;;;;;;;;;;;;;;;;;;1043417;28;3307;-53
2022/12/26 02:16:49;;;;;;;;;;;;;;;;;;1041300;28;4196;-49
2022/12/26 02:17:20;;;;;;;;;;;;;;;;;;1044544;28;3038;-50
2022/12/26 02:17:50;;;;;;;;;;;;;;;;;;1041052;28;4051;-49
2022/12/26 02:18:20;;;;;;;;;;;;;;;;;;1044336;28;3013;-47
2022/12/26 02:18:50;;;;;;;;;;;;;;;;;;1041958;28;4013;-48
2022/12/26 02:19:39;;;;;;;;;;;;;;;;;;1044390;28;2915;-48
2022/12/26 02:20:16;;;;;;;;;;;;;;;;;;1042708;28;3703;-46
2022/12/26 02:20:58;;;;;;;;;;;;;;;;;;1043542;28;4408;-49
2022/12/26 02:21:31;;;;;;;;;;;;;;;;;;1043683;28;4393;-50
2022/12/26 02:22:11;;;;;;;;;;;;;;;;;;1041990;28;2918;-47
2022/12/26 02:22:58;;;;;;;;;;;;;;;;;;1042698;28;4079;-52
2022/12/26 02:23:46;;;;;;;;;;;;;;;;;;1042313;28;4196;-50
2022/12/26 02:24:26;;;;;;;;;;;;;;;;;;1042569;28;2973;-48
2022/12/26 02:25:03;;;;;;;;;;;;;;;;;;1042889;28;3755;-49
2022/12/26 02:25:52;;;;;;;;;;;;;;;;;;1042298;28;4428;-44
2022/12/26 02:26:28;;;;;;;;;;;;;;;;;;1041789;28;4396;-45
2022/12/26 02:27:06;;;;;;;;;;;;;;;;;;1043500;28;2441;-47
2022/12/26 02:27:57;;;;;;;;;;;;;;;;;;1043099;28;3968;-49
2022/12/26 02:28:42;;;;;;;;;;;;;;;;;;1043266;28;3826;-50
2022/12/26 02:29:21;;;;;;;;;;;;;;;;;;1042566;28;2995;-46
2022/12/26 02:29:51;;;;;;;;;;;;;;;;;;1043707;28;3994;-50
2022/12/26 02:30:32;;;;;;;;;;;;;;;;;;1043648;28;2397;-48
2022/12/26 02:31:08;;;;;;;;;;;;;;;;;;1045392;28;3824;-46
2022/12/26 02:31:38;;;;;;;;;;;;;;;;;;1043118;28;4102;-47
2022/12/26 02:32:17;;;;;;;;;;;;;;;;;;1044229;28;2555;-50
2022/12/26 02:32:57;;;;;;;;;;;;;;;;;;1042233;28;3923;-49
2022/12/26 02:33:39;;;;;;;;;;;;;;;;;;1042098;28;4014;-48
2022/12/26 02:34:15;;;;;;;;;;;;;;;;;;1044002;28;2863;-47
2022/12/26 02:34:53;;;;;;;;;;;;;;;;;;1042596;28;3787;-50
2022/12/26 02:35:43;;;;;;;;;;;;;;;;;;1042305;28;4448;-49
2022/12/26 02:36:13;;;;;;;;;;;;;;;;;;1043255;28;3401;-47
2022/12/26 02:36:59;;;;;;;;;;;;;;;;;;1042979;28;4463;-48
2022/12/26 02:37:41;;;;;;;;;;;;;;;;;;1043779;28;4111;-50
2022/12/26 02:38:20;;;;;;;;;;;;;;;;;;1042634;28;2571;-48
2022/12/26 02:39:00;;;;;;;;;;;;;;;;;;1043273;28;4894;-46
2022/12/26 02:39:49;;;;;;;;;;;;;;;;;;1044755;28;4045;-47
2022/12/26 02:40:29;;;;;;;;;;;;;;;;;;1042516;28;2687;-50
2022/12/26 02:41:02;;;;;;;;;;;;;;;;;;1042659;28;3870;-46
2022/12/26 02:42:04;;;;;;;;;;;;;;;;;;1042216;28;3805;-46
2022/12/26 02:42:37;;;;;;;;;;;;;;;;;;1044081;28;4172;-49
2022/12/26 02:43:21;;;;;;;;;;;;;;;;;;1043709;28;3009;-53
2022/12/26 02:43:51;;;;;;;;;;;;;;;;;;1039751;28;4084;-46
2022/12/26 02:47:14;;;;;;;;;;;;;;;;;;1043757;28;3980;-49
2022/12/26 02:47:53;;;;;;;;;;;;;;;;;;1043150;28;3804;-48
2022/12/26 02:48:50;;;;;;;;;;;;;;;;;;1043907;28;4254;-45
2022/12/26 02:49:23;;;;;;;;;;;;;;;;;;1035125;28;3016;-46
2022/12/26 03:13:27;;;;;;;;;;;;;;;;;;1047487;28;3929;-53
2022/12/26 03:14:13;;;;;;;;;;;;;;;;;;1047144;28;2360;-50
2022/12/26 03:14:47;;;;;;;;;;;;;;;;;;1048846;28;4357;-49
2022/12/26 03:15:19;;;;;;;;;;;;;;;;;;1047705;28;2902;-52
2022/12/26 03:17:37;;;;;;;;;;;;;;;;;;1048698;28;3901;-51
2022/12/26 03:18:10;;;;;;;;;;;;;;;;;;1047645;28;2623;-52
2022/12/26 03:18:42;;;;;;;;;;;;;;;;;;1047694;28;3921;-53
2022/12/26 03:19:14;;;;;;;;;;;;;;;;;;1048566;28;2838;-51
2022/12/26 03:20:01;;;;;;;;;;;;;;;;;;1046094;28;4203;-47
2022/12/26 03:20:35;;;;;;;;;;;;;;;;;;1047969;28;4031;-47
2022/12/26 03:21:06;;;;;;;;;;;;;;;;;;1048034;28;2731;-44
2022/12/26 03:21:39;;;;;;;;;;;;;;;;;;1043102;28;4192;-49
2022/12/26 03:22:29;;;;;;;;;;;;;;;;;;1043246;28;2674;-47
2022/12/26 03:23:09;;;;;;;;;;;;;;;;;;1042828;28;3920;-47
2022/12/26 03:23:42;;;;;;;;;;;;;;;;;;1046953;28;3983;-49
2022/12/26 03:24:14;;;;;;;;;;;;;;;;;;1047447;28;2907;-49
2022/12/26 03:26:39;;;;;;;;;;;;;;;;;;1047781;28;3955;-49
2022/12/26 03:27:09;;;;;;;;;;;;;;;;;;1046704;28;2835;-45
2022/12/26 03:27:39;;;;;;;;;;;;;;;;;;1045609;28;3867;-47
2022/12/26 03:28:09;;;;;;;;;;;;;;;;;;1046061;28;2558;-49
2022/12/26 03:28:40;;;;;;;;;;;;;;;;;;1046002;28;3938;-49
2022/12/26 03:30:50;;;;;;;;;;;;;;;;;;1049439;28;4012;-44
2022/12/26 03:31:21;;;;;;;;;;;;;;;;;;1047582;28;2987;-48
2022/12/26 03:31:51;;;;;;;;;;;;;;;;;;1047396;28;3775;-50
2022/12/26 03:32:21;;;;;;;;;;;;;;;;;;1048956;28;2425;-48
2022/12/26 03:32:53;;;;;;;;;;;;;;;;;;1047190;28;4217;-45
2022/12/26 03:34:17;;;;;;;;;;;;;;;;;;1048740;28;2609;-47
2022/12/26 03:34:47;;;;;;;;;;;;;;;;;;1048404;28;4188;-46
2022/12/26 03:35:19;;;;;;;;;;;;;;;;;;1049336;28;2610;-46
2022/12/26 03:35:49;;;;;;;;;;;;;;;;;;1047198;28;3783;-50
2022/12/26 03:36:34;;;;;;;;;;;;;;;;;;1048801;28;3062;-47
2022/12/26 03:37:40;;;;;;;;;;;;;;;;;;1048223;28;4117;-45
2022/12/26 03:38:12;;;;;;;;;;;;;;;;;;1039872;28;3866;-48
2022/12/26 03:38:54;;;;;;;;;;;;;;;;;;1038490;28;4039;-46
2022/12/26 04:19:54;;;;;;;;;;;;;;;;;;1043104;28;3959;-51
2022/12/26 04:20:39;;;;;;;;;;;;;;;;;;1026716;28;3826;-47
2022/12/26 04:44:10;;;;;;;;;;;;;;;;;;1044236;28;3958;-52
2022/12/26 04:44:41;;;;;;;;;;;;;;;;;;1044410;28;4080;-49
2022/12/26 04:45:12;;;;;;;;;;;;;;;;;;1044699;28;3080;-53
2022/12/26 04:45:42;;;;;;;;;;;;;;;;;;1044070;28;5358;-49
2022/12/26 04:46:13;;;;;;;;;;;;;;;;;;1044415;28;2515;-48
2022/12/26 04:46:45;;;;;;;;;;;;;;;;;;1042798;28;3891;-52
2022/12/26 04:47:16;;;;;;;;;;;;;;;;;;1044572;28;2754;-50
2022/12/26 04:50:35;;;;;;;;;;;;;;;;;;1043981;28;4374;-50
2022/12/26 04:51:05;;;;;;;;;;;;;;;;;;1042752;28;2692;-49
2022/12/26 04:51:35;;;;;;;;;;;;;;;;;;1043721;28;3763;-50
2022/12/26 04:52:08;;;;;;;;;;;;;;;;;;1043230;28;2857;-47
2022/12/26 04:52:57;;;;;;;;;;;;;;;;;;1044245;28;3932;-50
2022/12/26 04:53:27;;;;;;;;;;;;;;;;;;1041505;28;4232;-46
2022/12/26 04:53:58;;;;;;;;;;;;;;;;;;1042365;28;3034;-50
2022/12/26 04:54:28;;;;;;;;;;;;;;;;;;1043056;28;3805;-55
2022/12/26 04:54:58;;;;;;;;;;;;;;;;;;1043806;28;2616;-47
2022/12/26 04:55:30;;;;;;;;;;;;;;;;;;1043081;28;4027;-49
2022/12/26 04:56:00;;;;;;;;;;;;;;;;;;1043976;28;2989;-50
2022/12/26 04:56:31;;;;;;;;;;;;;;;;;;1042057;28;4146;-48
2022/12/26 04:57:01;;;;;;;;;;;;;;;;;;1042780;28;4219;-50
2022/12/26 04:57:31;;;;;;;;;;;;;;;;;;1042265;28;4009;-50
2022/12/26 04:58:02;;;;;;;;;;;;;;;;;;1043778;28;3006;-47
2022/12/26 04:58:32;;;;;;;;;;;;;;;;;;1043212;28;3891;-50
2022/12/26 04:59:08;;;;;;;;;;;;;;;;;;1046560;28;2990;-54
2022/12/26 04:59:45;;;;;;;;;;;;;;;;;;1047653;28;3977;-52
2022/12/26 05:00:16;;;;;;;;;;;;;;;;;;1046926;28;3296;-50
2022/12/26 05:00:46;;;;;;;;;;;;;;;;;;1046631;28;3962;-49
2022/12/26 05:09:35;;;;;;;;;;;;;;;;;;1047257;28;3970;-49
2022/12/26 05:10:07;;;;;;;;;;;;;;;;;;1050870;28;1603;-51
2022/12/26 05:10:38;;;;;;;;;;;;;;;;;;1048471;28;4434;-52
2022/12/26 05:11:08;;;;;;;;;;;;;;;;;;1047867;28;2242;-49
2022/12/26 05:11:39;;;;;;;;;;;;;;;;;;1050038;28;4044;-48
2022/12/26 05:12:09;;;;;;;;;;;;;;;;;;1045087;28;1994;-51
2022/12/26 05:12:39;;;;;;;;;;;;;;;;;;1045401;28;4385;-49
2022/12/26 05:13:09;;;;;;;;;;;;;;;;;;1044914;28;2021;-53
2022/12/26 05:13:40;;;;;;;;;;;;;;;;;;1040705;28;3910;-49
2022/12/26 05:14:10;;;;;;;;;;;;;;;;;;1044983;28;2065;-51
2022/12/26 05:14:40;;;;;;;;;;;;;;;;;;1042496;28;4575;-51
2022/12/26 05:15:10;;;;;;;;;;;;;;;;;;1045154;28;3117;-52
2022/12/26 05:28:40;;;;;;;;;;;;;;;;;;1049415;28;2415;-47
2022/12/26 05:29:10;;;;;;;;;;;;;;;;;;1047822;28;3818;-52
2022/12/26 05:29:41;;;;;;;;;;;;;;;;;;1048869;28;4218;-49
2022/12/26 05:30:11;;;;;;;;;;;;;;;;;;1048261;28;2970;-49
2022/12/26 05:30:41;;;;;;;;;;;;;;;;;;1050120;28;3778;-52
2022/12/26 05:31:13;;;;;;;;;;;;;;;;;;1047046;28;1921;-49
2022/12/26 05:31:43;;;;;;;;;;;;;;;;;;1048256;28;3773;-49
2022/12/26 05:34:11;;;;;;;;;;;;;;;;;;1051119;28;3742;-48
2022/12/26 05:34:48;;;;;;;;;;;;;;;;;;1048266;28;4170;-52
2022/12/26 05:35:18;;;;;;;;;;;;;;;;;;1049880;28;2556;-52
2022/12/26 05:35:48;;;;;;;;;;;;;;;;;;1048234;28;3747;-50
2022/12/26 05:36:20;;;;;;;;;;;;;;;;;;1049786;28;2489;-49
2022/12/26 05:36:52;;;;;;;;;;;;;;;;;;1046705;28;4075;-51
2022/12/26 05:37:22;;;;;;;;;;;;;;;;;;1048396;28;1892;-51
2022/12/26 05:37:53;;;;;;;;;;;;;;;;;;1043783;28;3955;-49
2022/12/26 05:38:23;;;;;;;;;;;;;;;;;;1044108;28;4075;-50
2022/12/26 05:38:55;;;;;;;;;;;;;;;;;;1045842;28;2531;-48
2022/12/26 05:39:25;;;;;;;;;;;;;;;;;;1047037;28;3859;-49
2022/12/26 05:39:55;;;;;;;;;;;;;;;;;;1050025;28;2325;-49
2022/12/26 05:40:25;;;;;;;;;;;;;;;;;;1046918;28;4045;-48
2022/12/26 05:40:56;;;;;;;;;;;;;;;;;;1047159;28;1788;-52
2022/12/26 05:41:26;;;;;;;;;;;;;;;;;;1045569;28;4071;-51
2022/12/26 05:41:56;;;;;;;;;;;;;;;;;;1047303;28;1839;-49
2022/12/26 05:42:27;;;;;;;;;;;;;;;;;;1048936;28;4115;-47
2022/12/26 05:42:57;;;;;;;;;;;;;;;;;;1050150;28;1655;-46
2022/12/26 05:43:27;;;;;;;;;;;;;;;;;;1045031;28;4494;-49
2022/12/26 05:43:57;;;;;;;;;;;;;;;;;;1044499;28;2460;-48
2022/12/26 05:44:28;;;;;;;;;;;;;;;;;;1044976;28;3889;-52
2022/12/26 05:44:58;;;;;;;;;;;;;;;;;;1044209;28;3007;-48
2022/12/26 05:45:35;;;;;;;;;;;;;;;;;;1047262;28;3811;-51
2022/12/26 05:46:05;;;;;;;;;;;;;;;;;;1049430;28;2437;-50
2022/12/26 05:46:36;;;;;;;;;;;;;;;;;;1047842;28;4244;-50
2022/12/26 05:47:06;;;;;;;;;;;;;;;;;;1051673;28;1640;-51
2022/12/26 05:47:37;;;;;;;;;;;;;;;;;;1048752;28;3890;-47
2022/12/26 05:48:08;;;;;;;;;;;;;;;;;;1048497;28;2399;-48
2022/12/26 05:48:38;;;;;;;;;;;;;;;;;;1046047;28;4415;-50
2022/12/26 05:49:08;;;;;;;;;;;;;;;;;;1048244;28;2629;-49
2022/12/26 05:49:39;;;;;;;;;;;;;;;;;;1049975;28;4268;-51
2022/12/26 05:50:09;;;;;;;;;;;;;;;;;;1050134;28;2564;-48
2022/12/26 05:50:39;;;;;;;;;;;;;;;;;;1048984;28;4290;-49
2022/12/26 05:51:09;;;;;;;;;;;;;;;;;;1048066;28;2776;-48
2022/12/26 05:51:40;;;;;;;;;;;;;;;;;;1048698;28;3782;-51
2022/12/26 05:52:10;;;;;;;;;;;;;;;;;;1050902;28;2758;-50
2022/12/26 05:52:40;;;;;;;;;;;;;;;;;;1045708;28;3951;-51